Time;durP1;ratioP1;P1;durP2;ratioP2;P2;SDS_P1;SDS_P2;PMS_P1;PMS_P2;Temp;Humidity;BMP_temperature;BMP_pressure;BME280_temperature;BME280_humidity;BME280_pressure;Samples;Min_cycle;Max_cycle;Signal;HPM_P1;HPM_P2
2023/10/17 00:01:47;;;;;;;5.20;2.10;;;;;;;10.74;35.18;95375.31;5112966;27;20235;-73
2023/10/17 00:06:45;;;;;;;2.78;2.13;;;;;;;10.86;35.08;95362.00;5132785;27;20211;-74
2023/10/17 00:09:10;;;;;;;2.85;2.00;;;;;;;10.70;35.48;95367.88;5114920;27;20218;-73
2023/10/17 00:14:20;;;;;;;3.70;2.20;;;;;;;10.45;36.28;95362.28;5126872;27;20305;-74
2023/10/17 00:16:46;;;;;;;3.83;2.20;;;;;;;10.60;36.13;95352.13;5108734;27;20258;-74
2023/10/17 00:19:16;;;;;;;3.60;1.88;;;;;;;10.62;36.33;95346.75;5114503;27;20224;-74
2023/10/17 00:21:41;;;;;;;2.97;2.03;;;;;;;10.68;36.00;95344.34;5116895;27;20232;-75
2023/10/17 00:24:10;;;;;;;4.95;2.22;;;;;;;10.74;36.04;95345.56;5116049;27;20222;-74
2023/10/17 00:26:39;;;;;;;3.50;2.33;;;;;;;10.68;36.50;95349.59;5132177;27;20206;-74
2023/10/17 00:29:09;;;;;;;4.68;2.00;;;;;;;10.71;36.29;95343.22;5107091;27;20383;-72
2023/10/17 00:31:36;;;;;;;2.95;1.88;;;;;;;10.62;36.88;95337.03;5116147;27;20185;-72
2023/10/17 00:34:13;;;;;;;5.18;2.25;;;;;;;10.63;37.03;95340.50;5112774;27;20210;-72
2023/10/17 00:36:48;;;;;;;5.18;2.22;;;;;;;10.51;37.43;95332.78;5111272;27;20222;-73
2023/10/17 00:39:23;;;;;;;5.50;2.47;;;;;;;10.33;38.22;95339.75;5116329;27;20225;-73
2023/10/17 00:42:09;;;;;;;3.47;1.83;;;;;;;10.58;37.81;95331.25;5129516;27;20301;-73
2023/10/17 00:44:36;;;;;;;2.38;1.90;;;;;;;10.77;37.29;95330.34;5115339;27;20211;-73
2023/10/17 00:47:04;;;;;;;3.53;2.10;;;;;;;10.67;37.67;95337.44;5114180;27;20219;-73
2023/10/17 00:49:40;;;;;;;3.27;2.03;;;;;;;10.49;38.17;95331.28;5111669;27;20249;-73
2023/10/17 00:52:16;;;;;;;5.40;2.07;;;;;;;10.66;38.21;95327.06;5109907;28;20218;-73
2023/10/17 00:54:42;;;;;;;3.90;2.00;;;;;;;10.70;38.07;95321.38;5113423;27;20218;-73
2023/10/17 00:57:09;;;;;;;4.38;2.20;;;;;;;10.62;39.06;95320.44;5130950;27;20225;-73
2023/10/17 00:59:35;;;;;;;8.18;2.45;;;;;;;10.48;39.60;95329.63;5130126;27;20222;-73
2023/10/17 01:02:06;;;;;;;3.53;1.80;;;;;;;10.43;39.85;95334.50;5115026;28;20245;-72
2023/10/17 01:04:33;;;;;;;2.92;2.05;;;;;;;10.37;40.21;95323.56;5110245;28;20174;-73
2023/10/17 01:07:05;;;;;;;4.70;2.30;;;;;;;10.45;40.06;95324.63;5114536;28;20279;-73
2023/10/17 01:09:35;;;;;;;3.40;2.38;;;;;;;10.33;40.31;95324.81;5132975;28;20223;-74
2023/10/17 01:12:01;;;;;;;2.88;2.40;;;;;;;10.30;40.35;95326.91;5106746;28;20275;-73
2023/10/17 01:14:30;;;;;;;4.10;2.60;;;;;;;10.29;40.71;95322.59;5131718;28;20210;-72
2023/10/17 01:16:57;;;;;;;3.80;2.13;;;;;;;10.39;40.26;95328.66;5113240;28;20189;-74
2023/10/17 01:19:23;;;;;;;4.20;2.38;;;;;;;10.31;40.83;95336.44;5118167;28;20233;-74
2023/10/17 01:21:48;;;;;;;2.78;2.08;;;;;;;10.46;40.78;95332.38;5108697;28;20215;-72
2023/10/17 01:24:15;;;;;;;2.92;2.50;;;;;;;10.47;40.73;95339.28;5108371;27;20247;-77
2023/10/17 01:26:45;;;;;;;3.97;2.30;;;;;;;10.37;41.08;95333.22;5120204;27;20241;-76
2023/10/17 01:29:11;;;;;;;5.28;2.50;;;;;;;10.29;41.26;95343.63;5118094;27;20297;-76
2023/10/17 01:31:42;;;;;;;4.05;2.20;;;;;;;10.39;41.49;95328.66;5117920;27;20217;-74
2023/10/17 01:34:08;;;;;;;3.63;2.65;;;;;;;10.26;41.99;95339.44;5115064;27;20247;-73
2023/10/17 01:36:37;;;;;;;2.53;2.20;;;;;;;10.13;42.47;95331.91;5118662;27;20253;-73
2023/10/17 01:39:06;;;;;;;3.38;2.22;;;;;;;10.29;42.37;95323.47;5112736;27;20330;-73
2023/10/17 01:41:32;;;;;;;5.57;2.47;;;;;;;10.10;43.33;95334.81;5117381;27;20206;-73
2023/10/17 01:43:58;;;;;;;2.67;2.10;;;;;;;10.19;43.25;95329.66;5109376;27;20183;-73
2023/10/17 01:46:24;;;;;;;4.78;2.40;;;;;;;10.20;43.06;95326.06;5119109;27;20187;-73
2023/10/17 01:48:53;;;;;;;5.05;2.67;;;;;;;10.17;43.27;95329.81;5117078;27;20204;-73
2023/10/17 01:51:19;;;;;;;6.30;2.55;;;;;;;10.22;43.55;95332.84;5110582;27;20215;-73
2023/10/17 01:53:50;;;;;;;4.07;2.42;;;;;;;10.27;43.56;95335.03;5118654;27;20210;-73
2023/10/17 01:56:16;;;;;;;5.88;2.22;;;;;;;10.30;43.56;95330.34;5116622;27;20245;-73
2023/10/17 01:58:49;;;;;;;6.75;2.53;;;;;;;10.26;43.62;95330.75;5117811;27;20199;-73
2023/10/17 02:01:17;;;;;;;4.25;2.47;;;;;;;10.32;43.74;95330.22;5117181;27;20270;-73
2023/10/17 02:03:45;;;;;;;3.97;2.63;;;;;;;10.29;44.18;95333.97;5132018;27;20222;-73
2023/10/17 02:06:14;;;;;;;4.72;2.65;;;;;;;10.21;44.65;95325.94;5134121;27;20277;-72
2023/10/17 02:08:44;;;;;;;5.95;2.80;;;;;;;10.14;44.91;95320.41;5115820;27;20250;-73
2023/10/17 02:11:23;;;;;;;3.83;2.85;;;;;;;10.28;44.83;95320.97;5118432;27;20267;-73
2023/10/17 02:13:48;;;;;;;3.88;2.75;;;;;;;10.30;44.93;95321.66;5116892;27;20178;-74
2023/10/17 02:16:15;;;;;;;5.70;2.50;;;;;;;10.14;45.46;95316.94;5118226;27;20320;-73
2023/10/17 02:18:41;;;;;;;3.63;2.28;;;;;;;10.20;45.59;95324.25;5131937;27;20245;-74
2023/10/17 02:21:06;;;;;;;4.10;2.45;;;;;;;10.27;45.41;95319.28;5116567;27;20219;-74
2023/10/17 02:23:50;;;;;;;3.92;2.47;;;;;;;10.37;45.22;95320.09;5117318;27;20222;-74
2023/10/17 02:26:28;;;;;;;4.40;2.80;;;;;;;10.30;45.53;95321.66;5113500;27;20240;-73
2023/10/17 02:29:06;;;;;;;2.80;2.25;;;;;;;10.40;45.40;95317.19;5106727;27;20175;-74
2023/10/17 02:31:32;;;;;;;6.30;2.60;;;;;;;10.33;45.70;95316.09;5117376;27;20205;-74
2023/10/17 02:33:58;;;;;;;8.52;2.72;;;;;;;10.26;45.89;95312.34;5133851;27;20213;-74
2023/10/17 02:36:26;;;;;;;4.43;2.50;;;;;;;10.22;46.19;95311.81;5117875;27;20214;-74
2023/10/17 02:38:52;;;;;;;6.63;2.60;;;;;;;10.23;46.08;95312.63;5133005;27;20215;-73
2023/10/17 02:41:30;;;;;;;5.40;2.65;;;;;;;10.31;45.92;95315.41;5115953;27;20221;-72
2023/10/17 02:43:55;;;;;;;5.93;3.00;;;;;;;10.29;46.25;95317.34;5116832;27;20181;-72
2023/10/17 02:46:26;;;;;;;4.05;2.72;;;;;;;10.18;46.46;95318.31;5117393;27;20175;-72
2023/10/17 02:48:53;;;;;;;7.97;2.80;;;;;;;10.30;46.55;95314.59;5116639;27;20219;-72
2023/10/17 02:53:51;;;;;;;5.35;2.65;;;;;;;10.10;47.08;95308.53;5135087;27;20222;-72
2023/10/17 02:56:20;;;;;;;4.18;2.78;;;;;;;10.22;46.87;95309.19;5117301;27;20222;-72
2023/10/17 03:01:32;;;;;;;4.15;2.50;;;;;;;10.11;47.42;95315.44;5132650;27;20182;-72
2023/10/17 03:04:02;;;;;;;5.22;2.70;;;;;;;10.20;46.97;95308.50;5116559;27;20207;-72
2023/10/17 03:06:28;;;;;;;3.58;2.70;;;;;;;10.11;47.54;95311.97;5103030;28;20245;-72
2023/10/17 03:09:00;;;;;;;5.53;2.67;;;;;;;10.22;47.15;95308.38;5116654;27;20215;-72
2023/10/17 03:11:35;;;;;;;6.38;2.53;;;;;;;10.09;47.54;95322.63;5134728;27;20226;-73
2023/10/17 03:14:10;;;;;;;4.90;3.13;;;;;;;10.19;47.70;95324.41;5115222;27;20191;-72
2023/10/17 03:16:40;;;;;;;5.45;3.03;;;;;;;10.22;47.39;95318.88;5117096;27;20171;-73
2023/10/17 03:19:05;;;;;;;4.38;3.08;;;;;;;10.21;47.41;95322.44;5132641;27;20242;-74
2023/10/17 03:21:34;;;;;;;4.97;2.65;;;;;;;10.22;47.60;95326.75;5116176;27;20235;-73
2023/10/17 03:24:06;;;;;;;4.55;3.33;;;;;;;10.04;48.34;95309.06;5116520;27;20246;-73
2023/10/17 03:26:42;;;;;;;5.10;3.05;;;;;;;10.07;48.24;95303.53;5134961;27;20211;-73
2023/10/17 03:29:18;;;;;;;5.32;3.33;;;;;;;10.17;48.07;95306.16;5130223;27;20222;-73
2023/10/17 03:31:48;;;;;;;4.00;3.13;;;;;;;10.04;48.43;95309.06;5116060;27;20178;-73
2023/10/17 03:34:18;;;;;;;5.28;3.17;;;;;;;9.95;48.83;95309.94;5115064;27;20174;-73
2023/10/17 03:36:49;;;;;;;6.53;2.92;;;;;;;10.07;48.57;95311.41;5113533;27;20215;-72
2023/10/17 03:39:20;;;;;;;4.30;3.00;;;;;;;10.03;48.93;95317.13;5117047;27;20223;-73
2023/10/17 03:41:46;;;;;;;8.18;3.33;;;;;;;10.11;49.05;95322.50;5116602;27;20217;-74
2023/10/17 03:44:15;;;;;;;3.45;3.03;;;;;;;10.27;48.71;95319.28;5114334;27;20227;-76
2023/10/17 03:46:46;;;;;;;5.60;2.95;;;;;;;10.06;49.29;95314.19;5112416;27;20190;-74
2023/10/17 03:49:18;;;;;;;4.82;3.75;;;;;;;10.04;49.62;95303.81;5134493;27;20198;-74
2023/10/17 03:51:52;;;;;;;5.25;3.35;;;;;;;10.05;49.72;95309.91;5117045;27;20227;-76
2023/10/17 03:54:18;;;;;;;5.78;3.40;;;;;;;10.08;49.48;95301.75;5115390;27;20224;-75
2023/10/17 03:56:49;;;;;;;5.38;3.63;;;;;;;10.13;49.44;95310.88;5133840;27;20222;-74
2023/10/17 03:59:21;;;;;;;5.85;3.15;;;;;;;10.15;49.54;95302.84;5133122;27;20229;-75
2023/10/17 04:01:49;;;;;;;6.25;3.30;;;;;;;10.21;49.54;95301.44;5100271;27;20282;-71
2023/10/17 04:04:22;;;;;;;5.25;3.38;;;;;;;10.16;49.85;95302.69;5116233;27;20243;-72
2023/10/17 04:06:51;;;;;;;8.80;3.75;;;;;;;10.21;49.82;95314.56;5102768;27;20214;-72
2023/10/17 04:09:26;;;;;;;4.18;3.30;;;;;;;10.20;49.83;95308.50;5109616;27;20211;-71
2023/10/17 04:11:55;;;;;;;4.43;3.45;;;;;;;10.13;49.94;95307.38;5116657;27;20275;-71
2023/10/17 04:14:26;;;;;;;8.10;4.00;;;;;;;10.19;50.05;95308.66;5114646;27;20297;-72
2023/10/17 04:16:52;;;;;;;5.72;3.78;;;;;;;10.18;49.97;95309.59;5114797;27;20307;-72
2023/10/17 04:19:19;;;;;;;6.78;3.50;;;;;;;10.17;50.21;95314.03;5133847;27;20195;-71
2023/10/17 04:24:27;;;;;;;7.47;3.70;;;;;;;10.36;49.60;95303.50;5128242;27;20277;-72
2023/10/17 04:27:06;;;;;;;5.00;3.45;;;;;;;10.30;49.59;95295.38;5112556;27;20211;-70
2023/10/17 04:29:34;;;;;;;5.97;3.17;;;;;;;10.23;49.63;95302.94;5105680;27;20287;-69
2023/10/17 04:32:09;;;;;;;4.53;3.28;;;;;;;10.20;49.97;95310.28;5114460;27;20185;-70
2023/10/17 04:34:35;;;;;;;4.15;3.47;;;;;;;10.15;50.31;95314.16;5130650;27;20217;-70
2023/10/17 04:37:04;;;;;;;5.05;3.15;;;;;;;10.26;49.77;95299.22;5114184;27;20214;-69
2023/10/17 04:39:35;;;;;;;6.78;3.70;;;;;;;10.23;49.54;95302.94;5129605;27;20217;-70
2023/10/17 04:42:05;;;;;;;8.02;3.40;;;;;;;10.25;49.18;95295.75;5132248;27;20221;-70
2023/10/17 04:44:50;;;;;;;3.97;3.35;;;;;;;10.39;48.72;95297.13;5131369;27;20252;-71
2023/10/17 04:49:53;;;;;;;6.28;3.50;;;;;;;10.33;49.06;95295.06;5132354;27;20297;-73
2023/10/17 04:52:21;;;;;;;6.80;3.75;;;;;;;10.23;49.57;95304.75;5131112;27;20281;-70
2023/10/17 04:54:53;;;;;;;5.93;2.97;;;;;;;10.18;49.92;95301.72;5112309;27;20225;-69
2023/10/17 04:57:19;;;;;;;5.32;3.08;;;;;;;9.99;50.15;95303.41;5128686;27;20218;-70
2023/10/17 06:18:48;;;;;;;6.13;3.17;;;;;;;11.20;48.13;95328.03;5136559;27;20222;-75
2023/10/17 06:24:06;;;;;;;5.53;3.40;;;;;;;11.11;48.24;95347.34;5052048;28;20282;-73
2023/10/17 06:34:19;;;;;;;5.72;2.90;;;;;;;11.58;46.83;95342.75;5051191;28;20240;-75
2023/10/17 06:36:50;;;;;;;4.38;2.85;;;;;;;11.54;46.78;95335.28;5049134;28;20287;-74
2023/10/17 06:39:19;;;;;;;5.78;3.03;;;;;;;11.57;46.67;95350.78;5034617;28;20252;-75
2023/10/17 06:41:47;;;;;;;4.75;3.08;;;;;;;11.70;46.29;95343.34;5047280;28;20248;-77
2023/10/17 06:44:23;;;;;;;5.28;3.28;;;;;;;11.64;46.59;95338.69;5051044;28;20241;-75
2023/10/17 06:46:56;;;;;;;2.97;2.30;;;;;;;11.88;45.90;95348.66;5052985;28;20197;-79
2023/10/17 06:54:58;;;;;;;6.80;3.15;;;;;;;12.02;45.71;95355.19;5050835;28;20252;-76
2023/10/17 06:57:24;;;;;;;5.53;3.10;;;;;;;12.08;45.65;95349.28;5019906;28;20227;-76
2023/10/17 06:59:52;;;;;;;5.68;2.70;;;;;;;12.01;45.44;95346.47;5033978;28;20237;-76
2023/10/17 07:02:28;;;;;;;4.88;2.92;;;;;;;12.02;45.74;95339.38;5117480;27;20218;-78
2023/10/17 07:05:00;;;;;;;7.85;3.95;;;;;;;12.04;45.76;95340.06;5117752;27;20205;-74
2023/10/17 07:07:39;;;;;;;8.07;3.20;;;;;;;12.04;45.55;95338.25;5106177;27;20175;-75
2023/10/17 07:13:31;;;;;;;7.15;2.50;;;;;;;12.12;45.17;95329.56;5133587;27;20643;-75
2023/10/17 07:16:04;;;;;;;4.35;2.80;;;;;;;12.07;44.99;95321.28;5115265;27;20313;-79
2023/10/17 07:18:43;;;;;;;3.72;2.70;;;;;;;12.11;45.33;95317.38;5116765;27;20213;-74
2023/10/17 07:23:40;;;;;;;4.93;2.30;;;;;;;12.04;45.14;95313.69;5133757;27;20333;-77
2023/10/17 07:26:09;;;;;;;5.63;2.13;;;;;;;12.12;45.03;95309.31;5116518;27;20243;-76
2023/10/17 07:28:42;;;;;;;3.35;2.17;;;;;;;12.25;44.78;95310.72;5120235;27;20200;-76
2023/10/17 07:31:10;;;;;;;3.72;2.30;;;;;;;12.32;44.49;95307.31;5118125;27;20223;-74
2023/10/17 07:33:36;;;;;;;7.45;2.25;;;;;;;12.23;44.50;95300.31;5112771;27;20207;-74
2023/10/17 07:36:03;;;;;;;4.75;2.47;;;;;;;12.38;44.09;95310.31;5110436;27;20644;-74
2023/10/17 07:38:28;;;;;;;5.00;2.50;;;;;;;12.41;43.94;95308.19;5112468;27;20240;-74
2023/10/17 07:41:12;;;;;;;2.58;2.22;;;;;;;12.47;44.20;95307.56;5112267;27;20179;-73
2023/10/17 07:43:42;;;;;;;5.80;2.95;;;;;;;12.53;43.95;95306.09;5114137;27;20186;-74
2023/10/17 07:46:14;;;;;;;3.28;2.17;;;;;;;12.61;43.68;95300.03;5130882;27;20271;-73
2023/10/17 07:48:40;;;;;;;5.25;2.72;;;;;;;12.59;43.17;95302.84;5098074;27;20213;-73
2023/10/17 07:51:06;;;;;;;2.58;2.15;;;;;;;12.57;42.51;95307.44;5112256;27;20313;-66
2023/10/17 07:53:35;;;;;;;8.95;1.90;;;;;;;12.61;42.00;95302.69;5112979;27;20215;-73
2023/10/17 07:56:04;;;;;;;3.92;2.10;;;;;;;12.63;41.73;95295.44;5130304;27;20212;-74
2023/10/17 07:58:38;;;;;;;3.50;3.00;;;;;;;12.55;41.97;95298.84;5113991;27;20275;-75
2023/10/17 08:01:10;;;;;;;5.68;2.70;;;;;;;12.79;41.27;95301.59;5112560;27;20214;-73
2023/10/17 08:03:49;;;;;;;5.35;3.17;;;;;;;12.94;40.88;95299.22;5112340;27;20224;-74
2023/10/17 08:06:20;;;;;;;4.95;2.05;;;;;;;13.06;40.42;95302.38;5128311;27;20255;-73
2023/10/17 08:08:46;;;;;;;3.60;2.15;;;;;;;12.93;41.29;95302.00;5113577;27;20210;-77
2023/10/17 08:11:26;;;;;;;8.13;2.20;;;;;;;12.76;41.24;95299.28;5113842;27;20214;-75
2023/10/17 08:13:56;;;;;;;4.80;2.00;;;;;;;12.85;40.87;95309.88;5110965;27;20202;-71
2023/10/17 08:16:26;;;;;;;2.88;1.80;;;;;;;12.93;40.90;95304.63;5114050;27;20178;-68
2023/10/17 08:18:58;;;;;;;4.68;2.00;;;;;;;12.93;40.90;95302.00;5110418;27;20228;-77
2023/10/17 08:23:57;;;;;;;2.75;1.60;;;;;;;12.83;40.77;95306.56;5130563;27;20211;-71
2023/10/17 08:26:28;;;;;;;3.00;2.08;;;;;;;13.03;40.29;95298.25;5112070;27;20223;-75
2023/10/17 08:28:56;;;;;;;3.20;2.20;;;;;;;12.79;40.67;95301.59;5115452;27;20175;-74
2023/10/17 08:31:35;;;;;;;7.60;1.77;;;;;;;12.62;41.16;95307.00;5113785;27;20191;-79
2023/10/17 08:41:57;;;;;;;3.10;2.05;;;;;;;12.73;41.10;95290.88;5129603;27;20250;-77
2023/10/17 08:44:32;;;;;;;5.35;2.00;;;;;;;12.86;41.24;95291.25;5113169;27;20219;-70
2023/10/17 08:46:58;;;;;;;6.32;1.95;;;;;;;12.88;41.26;95293.72;5111552;27;20178;-76
2023/10/17 08:49:27;;;;;;;7.00;2.25;;;;;;;13.05;41.17;95300.72;5103895;27;20216;-74
2023/10/17 08:51:56;;;;;;;2.55;1.52;;;;;;;12.97;40.52;95304.16;5115127;27;20222;-72
2023/10/17 08:54:22;;;;;;;3.47;1.77;;;;;;;13.01;40.69;95304.66;5114504;27;20223;-75
2023/10/17 08:56:48;;;;;;;4.15;2.08;;;;;;;13.09;40.39;95301.22;5114190;27;20282;-74
2023/10/17 09:02:02;;;;;;;4.45;2.42;;;;;;;13.06;40.68;95299.72;5131864;27;20177;-77
2023/10/17 09:04:32;;;;;;;2.58;2.30;;;;;;;13.14;40.50;95301.56;5112233;27;20201;-73
2023/10/17 09:06:59;;;;;;;3.28;1.90;;;;;;;13.15;40.45;95285.59;5112998;28;20220;-76
2023/10/17 09:09:28;;;;;;;4.30;2.10;;;;;;;13.06;40.77;95296.28;5116809;28;20251;-74
2023/10/17 09:14:38;;;;;;;4.75;1.90;;;;;;;13.35;40.09;95280.03;5131240;28;20222;-73
2023/10/17 09:17:11;;;;;;;5.70;2.05;;;;;;;13.02;41.06;95275.47;5112225;28;20186;-73
2023/10/17 09:19:46;;;;;;;4.95;2.20;;;;;;;13.08;41.44;95274.00;5113882;28;20263;-67
2023/10/17 09:22:16;;;;;;;7.07;2.70;;;;;;;13.23;40.90;95271.56;5101735;28;20321;-68
2023/10/17 09:24:46;;;;;;;7.22;2.80;;;;;;;13.28;40.50;95271.94;5128118;28;20301;-73
2023/10/17 09:27:14;;;;;;;8.68;2.22;;;;;;;13.09;41.21;95269.53;5113803;28;20248;-70
2023/10/17 09:29:58;;;;;;;2.67;2.00;;;;;;;13.31;40.61;95262.84;5127318;28;20211;-71
2023/10/17 09:32:42;;;;;;;4.28;2.25;;;;;;;13.44;40.25;95252.63;5111651;28;20271;-74
2023/10/17 09:35:15;;;;;;;3.42;2.20;;;;;;;13.60;39.80;95249.19;5112343;28;20218;-74
2023/10/17 09:37:51;;;;;;;4.47;2.33;;;;;;;13.56;40.20;95247.88;5115275;28;20179;-74
2023/10/17 09:40:30;;;;;;;3.28;1.55;;;;;;;13.60;39.93;95246.53;5109035;28;20224;-75
2023/10/17 09:42:56;;;;;;;3.58;2.35;;;;;;;13.71;39.88;95245.38;5130500;28;20225;-74
2023/10/17 09:45:22;;;;;;;7.60;2.22;;;;;;;13.84;39.40;95245.72;5109840;27;20282;-74
2023/10/17 09:47:58;;;;;;;3.78;2.65;;;;;;;13.82;39.35;95245.06;5117864;27;20305;-74
2023/10/17 09:50:24;;;;;;;4.00;2.00;;;;;;;13.86;39.33;95239.28;5116963;27;20214;-74
2023/10/17 09:52:54;;;;;;;4.70;2.00;;;;;;;13.61;39.84;95222.63;5134908;27;20198;-74
2023/10/17 09:55:24;;;;;;;4.75;2.28;;;;;;;13.55;39.80;95239.13;5119578;27;20206;-74
2023/10/17 09:58:03;;;;;;;7.03;2.45;;;;;;;13.64;39.46;95232.84;5112030;27;20218;-74
2023/10/17 10:00:46;;;;;;;7.78;2.60;;;;;;;13.62;39.43;95226.91;5127902;27;20295;-74
2023/10/17 10:03:13;;;;;;;2.97;2.20;;;;;;;13.75;39.28;95226.41;5110636;27;20218;-74
2023/10/17 10:05:39;;;;;;;3.22;2.50;;;;;;;13.64;39.36;95224.91;5113376;27;20226;-74
2023/10/17 10:08:28;;;;;;;5.65;2.60;;;;;;;13.50;39.54;95230.88;5135016;27;20265;-74
2023/10/17 10:10:53;;;;;;;4.90;2.40;;;;;;;13.63;39.10;95223.28;5119169;27;20179;-74
2023/10/17 10:13:20;;;;;;;5.47;2.10;;;;;;;13.65;39.37;95216.00;5117715;27;20184;-74
2023/10/17 10:15:49;;;;;;;3.13;1.90;;;;;;;13.70;39.08;95217.31;5117127;27;20214;-74
2023/10/17 10:18:14;;;;;;;3.33;1.80;;;;;;;13.68;38.74;95217.47;5118126;27;20223;-74
2023/10/17 10:20:56;;;;;;;5.07;2.42;;;;;;;13.65;39.05;95218.63;5118190;27;20272;-74
2023/10/17 10:23:42;;;;;;;4.60;2.28;;;;;;;13.73;39.05;95215.16;5117267;27;20306;-76
2023/10/17 10:26:19;;;;;;;5.07;2.78;;;;;;;13.68;39.10;95215.69;5115723;27;20230;-72
2023/10/17 10:28:47;;;;;;;3.75;2.47;;;;;;;13.79;38.78;95218.97;5135222;27;20189;-73
2023/10/17 10:31:21;;;;;;;6.63;2.40;;;;;;;13.88;38.88;95217.97;5109998;27;20211;-73
2023/10/17 10:33:51;;;;;;;3.53;3.20;;;;;;;13.76;38.95;95214.00;5126444;27;20222;-73
2023/10/17 10:36:24;;;;;;;7.72;3.75;;;;;;;13.89;39.12;95216.97;5113317;27;20218;-71
2023/10/17 10:38:51;;;;;;;6.18;3.45;;;;;;;13.83;39.35;95204.44;5106287;27;20253;-69
2023/10/17 10:41:18;;;;;;;4.43;2.60;;;;;;;13.85;38.92;95207.75;5104473;27;20210;-69
2023/10/17 10:43:44;;;;;;;4.72;2.80;;;;;;;13.92;38.82;95202.59;5113729;27;20370;-69
2023/10/17 10:46:10;;;;;;;2.70;2.17;;;;;;;13.75;39.21;95201.81;5114702;27;20238;-67
2023/10/17 10:48:38;;;;;;;3.53;2.03;;;;;;;13.84;39.14;95204.25;5116362;27;20218;-68
2023/10/17 10:51:04;;;;;;;6.28;2.47;;;;;;;13.65;39.52;95201.97;5116185;27;20227;-69
2023/10/17 10:53:33;;;;;;;4.95;2.30;;;;;;;13.76;39.03;95209.53;5131736;27;20226;-72
2023/10/17 10:56:00;;;;;;;4.50;2.45;;;;;;;13.83;39.16;95204.44;5115461;27;20183;-72
2023/10/17 10:58:31;;;;;;;3.35;2.33;;;;;;;13.86;38.88;95204.91;5131454;27;20205;-72
2023/10/17 11:01:02;;;;;;;2.85;2.33;;;;;;;13.90;39.31;95194.84;5120096;27;20760;-71
2023/10/17 11:03:31;;;;;;;5.78;1.90;;;;;;;13.78;39.43;95191.72;5116500;27;20218;-72
2023/10/17 11:05:58;;;;;;;2.50;2.05;;;;;;;13.88;39.76;95199.47;5116065;27;20219;-72
2023/10/17 11:08:32;;;;;;;3.45;1.90;;;;;;;13.84;39.55;95190.22;5107620;27;20219;-73
2023/10/17 11:11:01;;;;;;;7.70;3.17;;;;;;;13.91;39.65;95185.91;5114822;27;20183;-72
2023/10/17 11:13:34;;;;;;;6.85;2.85;;;;;;;13.81;40.14;95170.22;5116908;27;20167;-79
2023/10/17 11:16:00;;;;;;;4.22;1.92;;;;;;;13.77;40.43;95178.69;5117257;27;20218;-79
2023/10/17 11:18:26;;;;;;;5.95;2.28;;;;;;;13.93;39.92;95172.53;5120373;27;20266;-77
2023/10/17 11:20:57;;;;;;;2.30;2.03;;;;;;;13.99;39.55;95172.69;5119573;27;20211;-73
2023/10/17 11:23:27;;;;;;;4.28;2.30;;;;;;;13.88;39.65;95159.81;5118968;27;20230;-73
2023/10/17 11:25:53;;;;;;;3.72;2.50;;;;;;;13.90;39.68;95156.03;5115337;27;20206;-74
2023/10/17 11:28:19;;;;;;;4.53;2.30;;;;;;;13.83;40.12;95154.22;5116723;27;20252;-75
2023/10/17 11:30:47;;;;;;;4.18;2.40;;;;;;;14.01;39.99;95156.66;5119690;27;20210;-77
2023/10/17 11:33:28;;;;;;;5.13;2.40;;;;;;;14.00;39.73;95137.31;5116837;27;20215;-78
2023/10/17 11:35:54;;;;;;;4.80;2.50;;;;;;;14.05;39.57;95142.09;5116506;27;20215;-77
2023/10/17 11:38:37;;;;;;;5.07;2.78;;;;;;;14.02;39.16;95130.03;5117785;27;20218;-79
2023/10/17 11:41:04;;;;;;;6.40;3.13;;;;;;;13.93;39.58;95128.41;5136548;27;20200;-79
2023/10/17 11:43:34;;;;;;;5.28;2.72;;;;;;;13.95;39.39;95136.97;5120689;27;20171;-77
2023/10/17 11:46:02;;;;;;;6.07;2.75;;;;;;;14.01;39.12;95123.09;5120332;27;20214;-77
2023/10/17 11:48:31;;;;;;;4.13;2.33;;;;;;;13.80;39.33;95125.47;5119229;27;20210;-77
2023/10/17 11:51:29;;;;;;;10.73;3.03;;;;;;;13.76;39.81;95121.50;5118250;27;20234;-77
2023/10/17 11:54:07;;;;;;;2.88;2.13;;;;;;;13.80;39.89;95109.63;5106534;28;20302;-79
2023/10/17 11:56:35;;;;;;;4.07;2.80;;;;;;;13.83;39.89;95109.28;5113703;27;20241;-78
2023/10/17 11:59:05;;;;;;;3.15;2.80;;;;;;;13.73;40.33;95121.84;5133431;27;20199;-78
2023/10/17 12:01:32;;;;;;;7.53;2.60;;;;;;;13.67;40.15;95123.34;5115474;28;20209;-76
2023/10/17 12:03:59;;;;;;;4.28;2.70;;;;;;;13.78;40.06;95119.53;5117904;27;20215;-77
2023/10/17 12:06:28;;;;;;;8.32;2.88;;;;;;;13.86;39.90;95120.34;5114792;27;20252;-76
2023/10/17 12:08:55;;;;;;;4.97;2.67;;;;;;;13.79;40.36;95118.53;5129678;27;20206;-77
2023/10/17 12:11:21;;;;;;;5.05;3.08;;;;;;;13.77;40.01;95121.34;5106689;27;20221;-76
2023/10/17 12:13:47;;;;;;;5.53;3.30;;;;;;;13.80;40.13;95117.56;5103068;27;20210;-79
2023/10/17 12:16:13;;;;;;;7.05;4.28;;;;;;;13.88;39.72;95114.88;5117762;27;20179;-77
2023/10/17 12:18:38;;;;;;;7.72;2.58;;;;;;;13.80;39.81;95113.09;5118075;27;20248;-75
2023/10/17 12:21:14;;;;;;;6.47;2.80;;;;;;;13.79;39.63;95110.59;5117603;27;20217;-80
2023/10/17 12:23:43;;;;;;;2.55;2.33;;;;;;;13.76;39.70;95108.31;5119246;27;20226;-78
2023/10/17 12:26:14;;;;;;;6.15;2.50;;;;;;;13.72;39.82;95104.38;5116120;27;20214;-77
2023/10/17 12:28:43;;;;;;;3.35;2.10;;;;;;;13.73;39.94;95108.66;5138330;27;20179;-76
2023/10/17 12:31:16;;;;;;;3.15;2.42;;;;;;;13.66;39.70;95108.50;5117932;28;20214;-77
2023/10/17 12:33:43;;;;;;;3.95;2.22;;;;;;;13.60;40.26;95109.16;5121024;27;20207;-77
2023/10/17 12:36:09;;;;;;;5.32;2.40;;;;;;;13.56;40.22;95103.41;5119294;27;20289;-77
2023/10/17 12:38:34;;;;;;;3.50;2.05;;;;;;;13.58;40.28;95092.63;5117098;27;20314;-80
2023/10/17 12:41:08;;;;;;;3.08;2.55;;;;;;;13.60;40.33;95094.13;5114872;27;20179;-76
2023/10/17 12:43:35;;;;;;;7.63;2.47;;;;;;;13.62;40.23;95097.44;5117261;27;20180;-76
2023/10/17 12:46:01;;;;;;;4.05;1.98;;;;;;;13.75;40.24;95106.66;5106574;27;20242;-74
2023/10/17 12:48:27;;;;;;;3.92;2.25;;;;;;;13.55;40.56;95092.97;5130987;27;20218;-77
2023/10/17 12:50:52;;;;;;;3.58;1.95;;;;;;;13.46;40.91;95098.28;5115867;27;20214;-74
2023/10/17 12:53:18;;;;;;;5.32;2.22;;;;;;;13.59;41.13;95102.25;5105751;27;20227;-80
2023/10/17 12:55:44;;;;;;;5.93;2.35;;;;;;;13.51;41.31;95099.59;5117370;27;20220;-77
2023/10/17 12:58:10;;;;;;;2.88;2.00;;;;;;;13.51;41.08;95096.97;5112376;27;20249;-76
2023/10/17 13:00:40;;;;;;;3.40;2.10;;;;;;;13.49;41.34;95093.66;5109528;27;20214;-76
2023/10/17 13:03:08;;;;;;;6.03;2.47;;;;;;;13.61;41.10;95094.97;5111716;27;20223;-78
2023/10/17 13:05:34;;;;;;;3.03;2.13;;;;;;;13.51;41.44;95108.34;5132109;27;20226;-79
2023/10/17 13:08:01;;;;;;;3.90;2.35;;;;;;;13.14;42.88;95103.56;5134203;27;20187;-77
2023/10/17 13:10:26;;;;;;;5.07;2.75;;;;;;;13.22;43.83;95101.75;5114398;27;20178;-78
2023/10/17 13:12:52;;;;;;;6.22;2.95;;;;;;;13.38;43.74;95102.75;5113949;28;20215;-78
2023/10/17 13:15:17;;;;;;;5.65;3.80;;;;;;;13.43;44.22;95095.97;5117801;28;20210;-79
2023/10/17 13:17:52;;;;;;;4.00;3.00;;;;;;;13.41;44.29;95097.97;5114144;28;20225;-75
2023/10/17 13:20:22;;;;;;;4.85;3.35;;;;;;;13.44;45.33;95102.06;5116507;27;20224;-78
2023/10/17 13:22:47;;;;;;;3.90;2.90;;;;;;;13.52;44.92;95098.59;5118340;27;20226;-76
2023/10/17 13:25:14;;;;;;;5.97;2.85;;;;;;;13.49;45.65;95097.13;5123230;27;20261;-76
2023/10/17 13:27:39;;;;;;;6.07;2.63;;;;;;;13.45;46.50;95095.81;5112782;27;20214;-76
2023/10/17 13:30:06;;;;;;;3.95;2.70;;;;;;;13.20;46.61;95098.47;5119333;27;20222;-76
2023/10/17 13:32:33;;;;;;;3.25;2.65;;;;;;;13.28;45.45;95096.81;5115610;28;20234;-77
2023/10/17 13:34:58;;;;;;;3.88;2.60;;;;;;;13.31;46.15;95102.63;5118319;27;20178;-76
2023/10/17 13:37:26;;;;;;;6.35;2.58;;;;;;;13.02;46.49;95103.91;5118948;27;20179;-76
2023/10/17 13:39:51;;;;;;;4.88;2.55;;;;;;;13.26;45.37;95099.66;5110115;27;20355;-74
2023/10/17 13:42:17;;;;;;;6.22;4.60;;;;;;;13.15;45.68;95098.13;5120611;27;20215;-79
2023/10/17 13:44:43;;;;;;;5.80;2.90;;;;;;;13.02;46.08;95100.44;5128064;27;20236;-79
2023/10/17 13:47:09;;;;;;;4.32;2.90;;;;;;;13.01;46.06;95109.31;5123482;27;20214;-79
2023/10/17 13:49:34;;;;;;;5.68;3.50;;;;;;;13.11;45.65;95104.72;5117565;27;20190;-76
2023/10/17 13:52:00;;;;;;;5.53;2.90;;;;;;;13.13;45.51;95094.81;5117048;27;20253;-76
2023/10/17 13:54:30;;;;;;;4.65;2.90;;;;;;;12.98;46.36;95102.56;5116687;27;20211;-73
2023/10/17 13:57:06;;;;;;;3.65;2.88;;;;;;;13.18;46.01;95105.72;5115902;27;20222;-75
2023/10/17 14:02:27;;;;;;;8.88;2.75;;;;;;;12.89;46.50;95108.03;5059578;28;20228;-75